createdAt,value
2023-03-05T00:01:41.580Z,96853.47
2023-03-05T00:04:14.639Z,96847.91
2023-03-05T00:06:42.830Z,96843.63
2023-03-05T00:09:12.938Z,96846.09
2023-03-05T00:11:41.227Z,96849.53
2023-03-05T00:14:09.312Z,96854.44
2023-03-05T00:16:37.546Z,96855.41
2023-03-05T00:19:05.860Z,96843.63
2023-03-05T00:21:37.668Z,96843.81
2023-03-05T00:24:09.508Z,96848.25
2023-03-05T00:26:40.687Z,96839.56
2023-03-05T00:29:10.920Z,96836.19
2023-03-05T00:31:39.702Z,96835.81
2023-03-05T00:34:13.528Z,96838.13
2023-03-05T00:36:42.768Z,96833.38
2023-03-05T00:39:10.836Z,96832.91
2023-03-05T00:41:40.461Z,96842.88
2023-03-05T00:44:08.742Z,96835.84
2023-03-05T00:46:37.628Z,96828.03
2023-03-05T00:49:06.002Z,96829.97
2023-03-05T00:51:34.198Z,96819.84
2023-03-05T00:54:03.579Z,96815.84
2023-03-05T00:56:31.689Z,96820.06
2023-03-05T00:59:01.072Z,96813.34
2023-03-05T01:01:29.460Z,96810.91
2023-03-05T01:03:59.576Z,96809.13
2023-03-05T01:06:28.204Z,96809.75
2023-03-05T01:08:57.266Z,96807.09
2023-03-05T01:11:25.366Z,96807.91
2023-03-05T01:13:53.378Z,96803.53
2023-03-05T01:16:23.108Z,96798.28
2023-03-05T01:18:51.247Z,96800.69
2023-03-05T01:21:19.280Z,96799.69
2023-03-05T01:23:47.328Z,96797.31
2023-03-05T01:26:15.356Z,96795.16
2023-03-05T01:28:43.409Z,96797.59
2023-03-05T01:31:12.440Z,96790.75
2023-03-05T01:33:41.816Z,96786.81
2023-03-05T01:36:13.497Z,96786.75
2023-03-05T01:38:41.931Z,96785.13
2023-03-05T01:41:10.999Z,96780.81
2023-03-05T01:43:40.034Z,96779.66
2023-03-05T01:46:28.904Z,96778.91
2023-03-05T01:49:09.426Z,96782.50
2023-03-05T01:51:43.751Z,96767.00
2023-03-05T01:54:15.593Z,96774.44
2023-03-05T01:56:44.976Z,96763.50
2023-03-05T01:59:14.830Z,96764.50
2023-03-05T02:01:49.086Z,96759.97
2023-03-05T02:04:20.396Z,96751.25
2023-03-05T02:06:49.778Z,96749.47
2023-03-05T02:09:18.360Z,96743.84
2023-03-05T02:11:46.838Z,96750.53
2023-03-05T02:14:15.036Z,96747.91
2023-03-05T02:16:44.238Z,96747.56
2023-03-05T02:19:13.979Z,96742.00
2023-03-05T02:21:46.055Z,96740.00
2023-03-05T02:24:15.300Z,96735.44
2023-03-05T02:26:44.804Z,96738.66
2023-03-05T02:29:19.354Z,96729.22
2023-03-05T02:31:47.755Z,96737.06
2023-03-05T02:34:16.148Z,96734.16
2023-03-05T02:36:46.712Z,96735.44
2023-03-05T02:39:14.999Z,96725.69
2023-03-05T02:41:43.741Z,96727.78
2023-03-05T02:44:12.379Z,96724.81
2023-03-05T02:46:40.389Z,96722.91
2023-03-05T02:49:09.178Z,96719.78
2023-03-05T02:51:37.550Z,96718.78
2023-03-05T02:54:07.173Z,96712.56
2023-03-05T02:56:35.377Z,96712.56
2023-03-05T02:59:03.446Z,96711.19
2023-03-05T03:01:31.591Z,96704.63
2023-03-05T03:04:00.156Z,96698.78
2023-03-05T03:06:28.219Z,96698.56
2023-03-05T03:08:56.271Z,96701.66
2023-03-05T03:11:25.786Z,96699.84
2023-03-05T03:13:53.808Z,96697.88
2023-03-05T03:16:21.884Z,96696.88
2023-03-05T03:18:50.011Z,96703.44
2023-03-05T03:21:21.066Z,96695.78
2023-03-05T03:23:49.411Z,96689.41
2023-03-05T03:26:17.793Z,96689.94
2023-03-05T03:28:47.331Z,96682.47
2023-03-05T03:31:15.803Z,96686.06
2023-03-05T03:33:45.217Z,96684.16
2023-03-05T03:36:15.445Z,96677.06
2023-03-05T03:38:43.757Z,96676.25
2023-03-05T03:41:11.820Z,96675.44
2023-03-05T03:43:39.976Z,96679.50
2023-03-05T03:46:10.223Z,96673.09
2023-03-05T03:48:38.522Z,96667.78
2023-03-05T03:51:08.557Z,96664.63
2023-03-05T03:53:36.674Z,96663.56
2023-03-05T03:56:05.536Z,96654.56
2023-03-05T03:58:33.813Z,96661.03
2023-03-05T04:01:02.086Z,96656.72
2023-03-05T04:03:31.437Z,96658.69
2023-03-05T04:05:59.503Z,96657.00
2023-03-05T04:08:27.943Z,96648.78
2023-03-05T04:10:56.039Z,96651.03
2023-03-05T04:13:24.108Z,96656.16
2023-03-05T04:15:52.451Z,96645.28
2023-03-05T04:18:20.536Z,96644.66
2023-03-05T04:20:50.073Z,96650.22
2023-03-05T04:23:18.700Z,96643.28
2023-03-05T04:25:46.984Z,96648.94
2023-03-05T04:28:15.200Z,96640.69
2023-03-05T04:30:43.630Z,96648.84
2023-03-05T04:33:11.936Z,96635.28
2023-03-05T04:35:40.068Z,96639.84
2023-03-05T04:38:10.320Z,96635.97
2023-03-05T04:40:38.586Z,96636.63
2023-03-05T04:43:07.342Z,96631.41
2023-03-05T04:45:37.143Z,96634.34
2023-03-05T04:48:05.770Z,96637.78
2023-03-05T04:50:34.108Z,96633.25
2023-03-05T04:53:02.644Z,96632.91
2023-03-05T04:55:32.049Z,96627.88
2023-03-05T04:58:00.196Z,96628.31
2023-03-05T05:00:28.297Z,96634.88
2023-03-05T05:02:56.417Z,96628.59
2023-03-05T05:05:29.369Z,96621.94
2023-03-05T05:07:58.952Z,96622.81
2023-03-05T05:10:27.815Z,96618.88
2023-03-05T05:12:59.241Z,96625.09
2023-03-05T05:15:28.490Z,96617.06
2023-03-05T05:17:56.490Z,96615.81
2023-03-05T05:20:24.549Z,96619.78
2023-03-05T05:22:52.677Z,96624.00
2023-03-05T05:25:20.776Z,96616.16
2023-03-05T05:27:49.010Z,96621.22
2023-03-05T05:30:42.565Z,96614.19
2023-03-05T05:33:10.576Z,96614.53
2023-03-05T05:35:41.102Z,96618.31
2023-03-05T05:38:09.181Z,96615.53
2023-03-05T05:41:02.006Z,96622.38
2023-03-05T05:43:30.030Z,96623.81
2023-03-05T05:46:02.073Z,96622.66
2023-03-05T05:48:31.188Z,96620.03
2023-03-05T05:50:59.552Z,96623.47
2023-03-05T05:53:28.053Z,96617.53
2023-03-05T05:55:56.143Z,96622.31
2023-03-05T05:58:24.241Z,96626.88
2023-03-05T06:00:52.433Z,96617.69
2023-03-05T06:03:22.072Z,96620.13
2023-03-05T06:05:51.750Z,96611.03
2023-03-05T06:08:20.193Z,96616.09
2023-03-05T06:10:56.108Z,96616.91
2023-03-05T06:13:24.153Z,96609.88
2023-03-05T06:16:03.654Z,96609.50
2023-03-05T06:18:34.224Z,96618.69
2023-03-05T06:21:05.366Z,96624.56
2023-03-05T06:23:34.026Z,96615.47
2023-03-05T06:26:04.356Z,96614.81
2023-03-05T06:28:32.667Z,96615.47
2023-03-05T06:31:02.414Z,96612.66
2023-03-05T06:33:33.119Z,96619.34
2023-03-05T06:36:03.414Z,96614.91
2023-03-05T06:38:31.597Z,96609.88
2023-03-05T06:41:02.833Z,96614.38
2023-03-05T06:43:33.241Z,96612.38
2023-03-05T06:46:05.841Z,96611.50
2023-03-05T06:48:35.794Z,96606.72
2023-03-05T06:51:04.421Z,96612.13
2023-03-05T06:53:32.844Z,96599.06
2023-03-05T06:56:05.922Z,96601.50
2023-03-05T06:58:34.027Z,96600.69
2023-03-05T07:01:02.291Z,96592.84
2023-03-05T07:03:30.624Z,96601.16
2023-03-05T07:06:00.041Z,96603.59
2023-03-05T07:08:33.180Z,96600.72
2023-03-05T07:11:01.624Z,96597.53
2023-03-05T07:13:30.035Z,96593.22
2023-03-05T07:15:58.203Z,96599.16
2023-03-05T07:18:26.272Z,96595.28
2023-03-05T07:20:55.439Z,96595.94
2023-03-05T07:23:27.006Z,96595.28
2023-03-05T07:25:55.333Z,96596.53
2023-03-05T07:28:23.527Z,96595.09
2023-03-05T07:30:58.221Z,96596.44
2023-03-05T07:33:26.493Z,96599.06
2023-03-05T07:35:54.740Z,96597.09
2023-03-05T07:38:24.678Z,96597.91
2023-03-05T07:40:53.155Z,96595.31
2023-03-05T07:43:21.242Z,96586.66
2023-03-05T07:45:49.309Z,96587.56
2023-03-05T07:48:20.962Z,96582.06
2023-03-05T07:50:49.815Z,96587.72
2023-03-05T07:53:18.049Z,96586.56
2023-03-05T07:55:48.579Z,96588.06
2023-03-05T07:58:16.617Z,96589.41
2023-03-05T08:00:44.656Z,96588.03
2023-03-05T08:03:15.687Z,96593.41
2023-03-05T08:05:44.167Z,96585.88
2023-03-05T08:08:12.358Z,96589.19
2023-03-05T08:10:41.062Z,96594.97
2023-03-05T08:13:10.499Z,96591.41
2023-03-05T08:15:39.329Z,96584.81
2023-03-05T08:18:07.509Z,96580.25
2023-03-05T08:20:36.438Z,96582.94
2023-03-05T08:23:04.868Z,96579.34
2023-03-05T08:25:33.310Z,96577.78
2023-03-05T08:28:01.358Z,96573.44
2023-03-05T08:30:31.060Z,96569.06
2023-03-05T08:32:59.160Z,96569.06
2023-03-05T08:35:27.718Z,96566.53
2023-03-05T08:37:57.380Z,96562.75
2023-03-05T08:40:25.568Z,96567.41
2023-03-05T08:42:53.627Z,96568.59
2023-03-05T08:45:21.790Z,96563.31
2023-03-05T08:47:51.364Z,96563.91
2023-03-05T08:50:19.730Z,96556.84
2023-03-05T08:52:47.759Z,96555.97
2023-03-05T08:55:43.217Z,96567.22
2023-03-05T08:58:12.221Z,96563.78
2023-03-05T09:00:41.096Z,96555.19
2023-03-05T09:03:11.169Z,96549.91
2023-03-05T09:05:39.516Z,96552.91
2023-03-05T09:08:07.656Z,96565.34
2023-03-05T09:10:35.716Z,96555.69
2023-03-05T09:13:04.314Z,96560.09
2023-03-05T09:15:32.901Z,96558.50
2023-03-05T09:18:01.287Z,96553.81
2023-03-05T09:20:30.831Z,96550.34
2023-03-05T09:22:59.246Z,96551.41
2023-03-05T09:25:27.825Z,96550.84
2023-03-05T09:27:56.041Z,96548.22
2023-03-05T09:30:24.365Z,96544.72
2023-03-05T09:32:52.570Z,96541.19
2023-03-05T09:35:20.785Z,96536.31
2023-03-05T09:37:50.281Z,96529.03
2023-03-05T09:40:20.681Z,96532.88
2023-03-05T09:43:03.611Z,96530.91
2023-03-05T09:45:39.354Z,96530.28
2023-03-05T09:48:17.905Z,96522.03
2023-03-05T09:50:50.515Z,96528.88
2023-03-05T09:56:32.829Z,96518.63
2023-03-05T09:59:15.272Z,96514.56
2023-03-05T10:01:44.978Z,96509.44
2023-03-05T10:04:17.752Z,96506.00
2023-03-05T10:06:54.301Z,96511.22
2023-03-05T10:09:44.280Z,96502.97
2023-03-05T10:12:25.251Z,96507.44
2023-03-05T10:14:53.565Z,96505.28
2023-03-05T10:17:45.818Z,96508.41
2023-03-05T10:20:42.534Z,96505.19
2023-03-05T10:23:31.182Z,96505.47
2023-03-05T10:26:19.448Z,96507.88
2023-03-05T10:28:58.689Z,96506.25
2023-03-05T10:31:54.166Z,96504.88
2023-03-05T10:34:57.988Z,96507.09
2023-03-05T10:38:19.269Z,96498.56
2023-03-05T10:40:52.089Z,96497.81
2023-03-05T10:43:30.632Z,96492.97
2023-03-05T10:45:59.739Z,96481.84
2023-03-05T10:48:36.644Z,96488.69
2023-03-05T10:51:14.445Z,96476.22
2023-03-05T10:53:55.898Z,96478.47
2023-03-05T10:56:26.534Z,96478.66
2023-03-05T10:58:56.366Z,96470.19
2023-03-05T11:01:28.093Z,96475.81
2023-03-05T11:03:59.518Z,96463.03
2023-03-05T11:06:38.737Z,96461.47
2023-03-05T11:09:28.210Z,96457.28
2023-03-05T11:12:17.025Z,96459.47
2023-03-05T11:15:02.957Z,96458.00
2023-03-05T11:17:34.330Z,96461.47
2023-03-05T11:20:35.355Z,96453.81
2023-03-05T11:23:06.841Z,96449.78
2023-03-05T11:25:36.404Z,96453.41
2023-03-05T11:28:05.180Z,96448.31
2023-03-05T11:30:37.555Z,96453.41
2023-03-05T11:33:11.355Z,96444.91
2023-03-05T11:35:42.055Z,96447.53
2023-03-05T11:38:20.367Z,96434.22
2023-03-05T11:40:49.458Z,96440.69
2023-03-05T11:43:21.127Z,96438.25
2023-03-05T11:45:53.839Z,96430.97
2023-03-05T11:48:28.245Z,96426.00
2023-03-05T11:51:02.070Z,96427.38
2023-03-05T11:53:33.162Z,96422.34
2023-03-05T11:56:12.694Z,96426.38
2023-03-05T11:58:47.442Z,96426.19
2023-03-05T12:01:20.666Z,96426.56
2023-03-05T12:03:50.269Z,96427.94
2023-03-05T12:06:27.379Z,96424.31
2023-03-05T12:08:58.933Z,96409.00
2023-03-05T12:11:31.618Z,96407.38
2023-03-05T12:14:12.867Z,96402.34
2023-03-05T12:16:47.907Z,96400.34
2023-03-05T12:19:38.752Z,96386.63
2023-03-05T12:22:17.238Z,96389.69
2023-03-05T12:24:45.482Z,96388.53
2023-03-05T12:27:18.305Z,96385.75
2023-03-05T12:29:50.467Z,96377.84
2023-03-05T12:32:57.132Z,96371.25
2023-03-05T12:35:35.918Z,96360.41
2023-03-05T12:38:31.853Z,96357.16
2023-03-05T12:41:39.500Z,96355.56
2023-03-05T12:44:22.258Z,96352.91
2023-03-05T12:47:23.412Z,96339.47
2023-03-05T12:49:53.249Z,96347.56
2023-03-05T12:52:28.113Z,96343.94
2023-03-05T12:55:17.448Z,96344.97
2023-03-05T12:57:48.450Z,96343.16
2023-03-05T13:00:23.804Z,96339.91
2023-03-05T13:02:58.004Z,96331.84
2023-03-05T13:05:32.713Z,96321.78
2023-03-05T13:08:23.980Z,96329.03
2023-03-05T13:10:56.569Z,96328.25
2023-03-05T13:13:26.587Z,96329.88
2023-03-05T13:15:55.029Z,96321.38
2023-03-05T13:18:26.854Z,96323.44
2023-03-05T13:21:05.691Z,96325.06
2023-03-05T13:23:35.350Z,96323.63
2023-03-05T13:26:15.174Z,96325.44
2023-03-05T13:28:45.386Z,96321.56
2023-03-05T13:31:18.470Z,96316.78
2023-03-05T13:33:56.817Z,96321.22
2023-03-05T13:36:28.730Z,96313.59
2023-03-05T13:38:57.112Z,96310.94
2023-03-05T13:41:27.173Z,96306.09
2023-03-05T13:43:58.164Z,96306.09
2023-03-05T13:46:32.500Z,96307.94
2023-03-05T13:49:20.344Z,96306.06
2023-03-05T13:51:52.495Z,96307.53
2023-03-05T13:54:22.397Z,96306.09
2023-03-05T13:56:54.245Z,96299.63
2023-03-05T13:59:25.032Z,96299.66
2023-03-05T14:01:54.722Z,96295.03
2023-03-05T14:04:26.648Z,96287.75
2023-03-05T14:07:01.205Z,96284.75
2023-03-05T14:09:32.176Z,96293.56
2023-03-05T14:12:04.497Z,96284.06
2023-03-05T14:14:38.031Z,96273.41
2023-03-05T14:17:39.967Z,96280.84
2023-03-05T14:20:23.579Z,96273.78
2023-03-05T14:22:57.071Z,96275.00
2023-03-05T14:25:38.392Z,96274.59
2023-03-05T14:28:20.930Z,96273.41
2023-03-05T14:30:52.567Z,96265.97
2023-03-05T14:33:25.933Z,96261.75
2023-03-05T14:35:54.488Z,96258.09
2023-03-05T14:38:28.654Z,96261.34
2023-03-05T14:40:57.304Z,96260.09
2023-03-05T14:43:25.497Z,96263.72
2023-03-05T14:45:53.852Z,96247.41
2023-03-05T14:48:21.950Z,96245.38
2023-03-05T14:50:57.218Z,96243.19
2023-03-05T14:53:34.892Z,96236.56
2023-03-05T14:56:03.320Z,96231.91
2023-03-05T14:58:35.619Z,96226.66
2023-03-05T15:01:04.264Z,96226.88
2023-03-05T15:03:32.970Z,96221.41
2023-03-05T15:06:01.133Z,96221.16
2023-03-05T15:08:33.275Z,96223.78
2023-03-05T15:11:02.253Z,96222.38
2023-03-05T15:13:31.891Z,96226.97
2023-03-05T15:16:00.358Z,96211.66
2023-03-05T15:18:28.827Z,96209.88
2023-03-05T15:20:58.083Z,96210.06
2023-03-05T15:23:26.369Z,96209.25
2023-03-05T15:25:55.923Z,96209.66
2023-03-05T15:28:24.464Z,96208.66
2023-03-05T15:30:52.659Z,96199.75
2023-03-05T15:33:20.681Z,96195.94
2023-03-05T15:35:48.766Z,96199.19
2023-03-05T15:38:17.276Z,96190.16
2023-03-05T15:40:47.023Z,96193.78
2023-03-05T15:43:16.753Z,96184.09
2023-03-05T15:45:44.992Z,96179.47
2023-03-05T15:48:13.632Z,96179.47
2023-03-05T15:50:43.352Z,96174.44
2023-03-05T15:53:16.172Z,96169.41
2023-03-05T15:55:45.822Z,96180.47
2023-03-05T15:58:17.548Z,96163.78
2023-03-05T16:00:47.546Z,96163.78
2023-03-05T16:03:16.224Z,96168.59
2023-03-05T16:05:44.486Z,96167.63
2023-03-05T16:08:12.809Z,96163.81
2023-03-05T16:10:41.885Z,96155.75
2023-03-05T16:13:17.385Z,96152.13
2023-03-05T16:15:53.183Z,96154.94
2023-03-05T16:18:22.684Z,96148.09
2023-03-05T16:20:51.229Z,96142.84
2023-03-05T16:23:20.015Z,96142.44
2023-03-05T16:25:48.480Z,96140.66
2023-03-05T16:28:20.190Z,96136.84
2023-03-05T16:30:55.284Z,96137.03
2023-03-05T16:33:23.588Z,96142.63
2023-03-05T16:35:57.442Z,96139.25
2023-03-05T16:38:26.399Z,96133.00
2023-03-05T16:41:07.844Z,96127.97
2023-03-05T16:43:36.763Z,96131.78
2023-03-05T16:46:06.583Z,96123.53
2023-03-05T16:48:35.748Z,96119.53
2023-03-05T16:51:05.781Z,96121.97
2023-03-05T16:53:34.132Z,96122.16
2023-03-05T16:56:05.482Z,96117.69
2023-03-05T16:58:34.807Z,96120.53
2023-03-05T17:01:03.860Z,96124.13
2023-03-05T17:03:33.558Z,96113.47
2023-03-05T17:06:01.765Z,96116.47
2023-03-05T17:08:29.770Z,96112.25
2023-03-05T17:10:57.985Z,96115.63
2023-03-05T17:13:26.149Z,96110.81
2023-03-05T17:15:56.954Z,96113.25
2023-03-05T17:18:26.062Z,96115.47
2023-03-05T17:20:55.708Z,96105.19
2023-03-05T17:23:24.594Z,96100.00
2023-03-05T17:25:52.784Z,96108.03
2023-03-05T17:28:21.476Z,96116.06
2023-03-05T17:30:49.848Z,96118.66
2023-03-05T17:33:18.086Z,96123.06
2023-03-05T17:35:47.799Z,96116.66
2023-03-05T17:38:18.432Z,96118.25
2023-03-05T17:40:46.711Z,96114.84
2023-03-05T17:43:14.918Z,96113.63
2023-03-05T17:45:43.869Z,96116.22
2023-03-05T17:48:12.817Z,96112.22
2023-03-05T17:50:41.902Z,96117.00
2023-03-05T17:53:10.489Z,96117.81
2023-03-05T17:55:43.653Z,96117.44
2023-03-05T17:58:11.923Z,96113.19
2023-03-05T18:00:40.201Z,96108.56
2023-03-05T18:03:12.370Z,96108.78
2023-03-05T18:05:40.938Z,96109.78
2023-03-05T18:08:10.608Z,96109.78
2023-03-05T18:10:40.106Z,96097.31
2023-03-05T18:13:08.121Z,96111.41
2023-03-05T18:15:37.236Z,96105.75
2023-03-05T18:18:05.656Z,96097.69
2023-03-05T18:20:37.262Z,96097.66
2023-03-05T18:23:06.591Z,96092.63
2023-03-05T18:25:35.325Z,96097.22
2023-03-05T18:28:08.519Z,96092.78
2023-03-05T18:30:37.806Z,96089.22
2023-03-05T18:33:06.244Z,96093.63
2023-03-05T18:35:35.221Z,96091.22
2023-03-05T18:38:03.546Z,96086.59
2023-03-05T18:40:35.801Z,96085.19
2023-03-05T18:43:05.416Z,96083.63
2023-03-05T18:45:34.329Z,96090.59
2023-03-05T18:48:02.502Z,96085.31
2023-03-05T18:50:31.500Z,96087.91
2023-03-05T18:52:59.659Z,96094.00
2023-03-05T18:55:30.517Z,96085.97
2023-03-05T18:57:59.042Z,96088.56
2023-03-05T19:00:31.691Z,96079.50
2023-03-05T19:02:59.946Z,96077.28
2023-03-05T19:05:29.196Z,96076.69
2023-03-05T19:07:57.512Z,96074.66
2023-03-05T19:10:26.592Z,96067.66
2023-03-05T19:13:05.534Z,96070.06
2023-03-05T19:15:35.265Z,96070.91
2023-03-05T19:18:03.286Z,96066.25
2023-03-05T19:20:31.399Z,96066.06
2023-03-05T19:22:59.427Z,96063.84
2023-03-05T19:25:27.495Z,96066.84
2023-03-05T19:27:55.992Z,96061.84
2023-03-05T19:30:24.291Z,96058.22
2023-03-05T19:32:53.854Z,96053.03
2023-03-05T19:35:22.209Z,96057.44
2023-03-05T19:37:50.413Z,96056.16
2023-03-05T19:40:19.203Z,96056.16
2023-03-05T19:42:47.271Z,96050.56
2023-03-05T19:45:15.636Z,96054.97
2023-03-05T19:47:43.689Z,96052.34
2023-03-05T19:50:16.223Z,96042.50
2023-03-05T19:52:44.470Z,96045.72
2023-03-05T19:55:13.204Z,96043.91
2023-03-05T19:57:41.335Z,96033.28
2023-03-05T20:00:14.600Z,96039.91
2023-03-05T20:02:42.644Z,96028.06
2023-03-05T20:05:11.276Z,96028.25
2023-03-05T20:07:40.665Z,96030.41
2023-03-05T20:10:10.759Z,96028.59
2023-03-05T20:12:39.197Z,96035.44
2023-03-05T20:15:08.579Z,96022.56
2023-03-05T20:17:36.687Z,96028.97
2023-03-05T20:20:07.365Z,96025.53
2023-03-05T20:22:35.542Z,96029.34
2023-03-05T20:25:06.769Z,96019.94
2023-03-05T20:27:35.270Z,96020.50
2023-03-05T20:30:03.295Z,96014.91
2023-03-05T20:32:31.790Z,96023.53
2023-03-05T20:34:59.913Z,96016.75
2023-03-05T20:37:39.890Z,96023.13
2023-03-05T20:40:11.740Z,96017.31
2023-03-05T20:42:40.014Z,96010.50
2023-03-05T20:45:09.744Z,96005.66
2023-03-05T20:47:40.826Z,96004.84
2023-03-05T20:50:10.925Z,96002.66
2023-03-05T20:52:39.986Z,95999.84
2023-03-05T20:55:10.743Z,95997.25
2023-03-05T20:57:39.245Z,96001.25
2023-03-05T21:00:09.481Z,96000.84
2023-03-05T21:02:37.698Z,95995.41
2023-03-05T21:05:07.430Z,95992.81
2023-03-05T21:07:35.963Z,95988.19
2023-03-05T21:10:05.803Z,95989.16
2023-03-05T21:12:35.640Z,95987.75
2023-03-05T21:15:03.835Z,95987.75
2023-03-05T21:17:31.854Z,95989.78
2023-03-05T21:20:00.232Z,95981.50
2023-03-05T21:22:28.486Z,95991.38
2023-03-05T21:25:03.347Z,95983.34
2023-03-05T21:27:31.485Z,95980.91
2023-03-05T21:30:01.195Z,95978.50
2023-03-05T21:32:29.700Z,95974.13
2023-03-05T21:34:59.391Z,95973.69
2023-03-05T21:37:28.615Z,95964.41
2023-03-05T21:39:56.664Z,95959.81
2023-03-05T21:42:25.073Z,95954.81
2023-03-05T21:44:55.009Z,95957.22
2023-03-05T21:47:24.455Z,95952.38
2023-03-05T21:49:52.911Z,95946.94
2023-03-05T21:52:22.323Z,95946.34
2023-03-05T21:54:50.327Z,95935.88
2023-03-05T21:57:18.617Z,95937.91
2023-03-05T21:59:46.724Z,95926.84
2023-03-05T22:02:16.808Z,95927.66
2023-03-05T22:04:47.374Z,95924.03
2023-03-05T22:07:17.096Z,95917.59
2023-03-05T22:09:45.473Z,95926.25
2023-03-05T22:12:20.139Z,95918.44
2023-03-05T22:14:48.317Z,95922.63
2023-03-05T22:17:16.390Z,95914.56
2023-03-05T22:19:45.717Z,95908.16
2023-03-05T22:22:13.901Z,95908.31
2023-03-05T22:24:41.973Z,95909.34
2023-03-05T22:27:10.529Z,95903.94
2023-03-05T22:29:38.932Z,95908.34
2023-03-05T22:32:07.565Z,95904.13
2023-03-05T22:34:37.502Z,95900.06
2023-03-05T22:37:07.091Z,95892.84
2023-03-05T22:39:35.321Z,95892.47
2023-03-05T22:42:03.373Z,95876.56
2023-03-05T22:44:31.497Z,95874.38
2023-03-05T22:46:59.593Z,95878.00
2023-03-05T22:49:27.889Z,95878.22
2023-03-05T22:51:55.936Z,95881.41
2023-03-05T22:54:25.501Z,95877.59
2023-03-05T22:56:53.764Z,95868.16
2023-03-05T22:59:21.876Z,95863.94
2023-03-05T23:01:50.095Z,95861.91
2023-03-05T23:04:28.988Z,95861.91
2023-03-05T23:06:57.295Z,95855.28
2023-03-05T23:09:27.151Z,95849.25
2023-03-05T23:11:55.429Z,95839.22
2023-03-05T23:14:23.632Z,95845.22
2023-03-05T23:16:51.832Z,95842.41
2023-03-05T23:19:20.146Z,95833.81
2023-03-05T23:21:48.417Z,95835.41
2023-03-05T23:24:16.724Z,95842.25
2023-03-05T23:26:46.608Z,95835.25
2023-03-05T23:29:15.229Z,95829.63
2023-03-05T23:31:43.688Z,95826.00
2023-03-05T23:34:11.867Z,95823.78
2023-03-05T23:36:40.585Z,95825.38
2023-03-05T23:39:08.792Z,95816.16
2023-03-05T23:41:37.433Z,95819.94
2023-03-05T23:44:07.268Z,95808.50
2023-03-05T23:46:35.626Z,95816.13
2023-03-05T23:49:03.916Z,95805.06
2023-03-05T23:51:32.138Z,95803.28
2023-03-05T23:54:00.596Z,95804.84
2023-03-05T23:56:29.016Z,95798.41
2023-03-05T23:59:00.515Z,95790.41
